sensor_id;sensor_type;location;lat;lon;timestamp;temperature;humidity
22161;DHT22;49035;48.812;11.762;2022-07-10T00:01:28;14.70;99.90
22161;DHT22;49035;48.812;11.762;2022-07-10T00:03:53;14.60;99.90
22161;DHT22;49035;48.812;11.762;2022-07-10T00:06:20;14.60;99.90
22161;DHT22;49035;48.812;11.762;2022-07-10T00:08:45;14.60;99.90
22161;DHT22;49035;48.812;11.762;2022-07-10T00:11:11;14.60;99.90
22161;DHT22;49035;48.812;11.762;2022-07-10T00:13:37;14.60;99.90
22161;DHT22;49035;48.812;11.762;2022-07-10T00:16:03;14.60;99.90
22161;DHT22;49035;48.812;11.762;2022-07-10T00:18:28;14.60;99.90
22161;DHT22;49035;48.812;11.762;2022-07-10T00:20:54;14.50;99.90
22161;DHT22;49035;48.812;11.762;2022-07-10T00:23:20;14.40;99.90
22161;DHT22;49035;48.812;11.762;2022-07-10T00:25:45;14.40;99.90
22161;DHT22;49035;48.812;11.762;2022-07-10T00:28:11;14.30;99.90
22161;DHT22;49035;48.812;11.762;2022-07-10T00:30:37;14.20;99.90
22161;DHT22;49035;48.812;11.762;2022-07-10T00:33:03;14.10;99.90
22161;DHT22;49035;48.812;11.762;2022-07-10T00:35:29;14.00;99.90
22161;DHT22;49035;48.812;11.762;2022-07-10T00:37:55;14.00;99.90
22161;DHT22;49035;48.812;11.762;2022-07-10T00:40:21;14.00;99.90
22161;DHT22;49035;48.812;11.762;2022-07-10T00:42:46;14.00;99.90
22161;DHT22;49035;48.812;11.762;2022-07-10T00:45:12;14.10;99.90
22161;DHT22;49035;48.812;11.762;2022-07-10T00:47:38;14.10;99.90
22161;DHT22;49035;48.812;11.762;2022-07-10T00:50:05;14.10;99.90
22161;DHT22;49035;48.812;11.762;2022-07-10T00:52:32;14.10;99.90
22161;DHT22;49035;48.812;11.762;2022-07-10T00:55:05;14.10;99.90
22161;DHT22;49035;48.812;11.762;2022-07-10T00:57:31;14.10;99.90
22161;DHT22;49035;48.812;11.762;2022-07-10T00:59:57;14.10;99.90
22161;DHT22;49035;48.812;11.762;2022-07-10T01:02:23;14.10;99.90
22161;DHT22;49035;48.812;11.762;2022-07-10T01:04:49;14.00;99.90
22161;DHT22;49035;48.812;11.762;2022-07-10T01:07:15;14.00;99.90
22161;DHT22;49035;48.812;11.762;2022-07-10T01:09:41;13.80;99.90
22161;DHT22;49035;48.812;11.762;2022-07-10T01:12:08;13.70;99.90
22161;DHT22;49035;48.812;11.762;2022-07-10T01:14:35;13.60;99.90
22161;DHT22;49035;48.812;11.762;2022-07-10T01:17:04;13.40;99.90
22161;DHT22;49035;48.812;11.762;2022-07-10T01:19:30;13.30;99.90
22161;DHT22;49035;48.812;11.762;2022-07-10T01:21:55;13.20;99.90
22161;DHT22;49035;48.812;11.762;2022-07-10T01:24:21;13.00;99.90
22161;DHT22;49035;48.812;11.762;2022-07-10T01:26:47;13.10;99.90
22161;DHT22;49035;48.812;11.762;2022-07-10T01:29:12;13.00;99.90
22161;DHT22;49035;48.812;11.762;2022-07-10T01:31:38;12.90;99.90
22161;DHT22;49035;48.812;11.762;2022-07-10T01:34:06;12.90;99.90
22161;DHT22;49035;48.812;11.762;2022-07-10T01:36:32;12.90;99.90
22161;DHT22;49035;48.812;11.762;2022-07-10T01:38:59;12.80;99.90
22161;DHT22;49035;48.812;11.762;2022-07-10T01:41:25;12.60;99.90
22161;DHT22;49035;48.812;11.762;2022-07-10T01:43:51;12.60;99.90
22161;DHT22;49035;48.812;11.762;2022-07-10T01:46:17;12.50;99.90
22161;DHT22;49035;48.812;11.762;2022-07-10T01:48:44;12.50;99.90
22161;DHT22;49035;48.812;11.762;2022-07-10T01:51:10;12.60;99.90
22161;DHT22;49035;48.812;11.762;2022-07-10T01:53:37;12.70;99.90
22161;DHT22;49035;48.812;11.762;2022-07-10T01:56:05;12.70;99.90
22161;DHT22;49035;48.812;11.762;2022-07-10T01:58:31;12.60;99.90
22161;DHT22;49035;48.812;11.762;2022-07-10T02:00:57;12.60;99.90
22161;DHT22;49035;48.812;11.762;2022-07-10T02:03:22;12.70;99.90
22161;DHT22;49035;48.812;11.762;2022-07-10T02:06:07;12.70;99.90
22161;DHT22;49035;48.812;11.762;2022-07-10T02:08:33;12.80;99.90
22161;DHT22;49035;48.812;11.762;2022-07-10T02:10:58;12.80;99.90
22161;DHT22;49035;48.812;11.762;2022-07-10T02:13:24;12.60;99.90
22161;DHT22;49035;48.812;11.762;2022-07-10T02:15:53;12.50;99.90
22161;DHT22;49035;48.812;11.762;2022-07-10T02:18:19;12.50;99.90
22161;DHT22;49035;48.812;11.762;2022-07-10T02:20:45;12.40;99.90
22161;DHT22;49035;48.812;11.762;2022-07-10T02:23:10;12.30;99.90
22161;DHT22;49035;48.812;11.762;2022-07-10T02:25:36;12.30;99.90
22161;DHT22;49035;48.812;11.762;2022-07-10T02:28:02;12.20;99.90
22161;DHT22;49035;48.812;11.762;2022-07-10T02:30:27;12.20;99.90
22161;DHT22;49035;48.812;11.762;2022-07-10T02:32:53;12.00;99.90
22161;DHT22;49035;48.812;11.762;2022-07-10T02:35:18;11.90;99.90
22161;DHT22;49035;48.812;11.762;2022-07-10T02:37:44;11.90;99.90
22161;DHT22;49035;48.812;11.762;2022-07-10T02:40:10;11.80;99.90
22161;DHT22;49035;48.812;11.762;2022-07-10T02:42:36;11.70;99.90
22161;DHT22;49035;48.812;11.762;2022-07-10T02:45:02;11.70;99.90
22161;DHT22;49035;48.812;11.762;2022-07-10T02:47:28;11.70;99.90
22161;DHT22;49035;48.812;11.762;2022-07-10T02:49:53;11.60;99.90
22161;DHT22;49035;48.812;11.762;2022-07-10T02:52:19;11.70;99.90
22161;DHT22;49035;48.812;11.762;2022-07-10T02:54:44;11.60;99.90
22161;DHT22;49035;48.812;11.762;2022-07-10T02:57:10;11.60;99.90
22161;DHT22;49035;48.812;11.762;2022-07-10T02:59:35;11.50;99.90
22161;DHT22;49035;48.812;11.762;2022-07-10T03:02:01;11.50;99.90
22161;DHT22;49035;48.812;11.762;2022-07-10T03:04:27;11.50;99.90
22161;DHT22;49035;48.812;11.762;2022-07-10T03:06:53;11.40;99.90
22161;DHT22;49035;48.812;11.762;2022-07-10T03:09:18;11.30;99.90
22161;DHT22;49035;48.812;11.762;2022-07-10T03:11:44;11.30;99.90
22161;DHT22;49035;48.812;11.762;2022-07-10T03:14:10;11.20;99.90
22161;DHT22;49035;48.812;11.762;2022-07-10T03:16:36;11.20;99.90
22161;DHT22;49035;48.812;11.762;2022-07-10T03:19:02;11.20;99.90
22161;DHT22;49035;48.812;11.762;2022-07-10T03:21:27;11.10;99.90
22161;DHT22;49035;48.812;11.762;2022-07-10T03:23:55;11.00;99.90
22161;DHT22;49035;48.812;11.762;2022-07-10T03:26:21;11.00;99.90
22161;DHT22;49035;48.812;11.762;2022-07-10T03:28:46;10.90;99.90
22161;DHT22;49035;48.812;11.762;2022-07-10T03:31:12;10.90;99.90
22161;DHT22;49035;48.812;11.762;2022-07-10T03:33:37;10.80;99.90
22161;DHT22;49035;48.812;11.762;2022-07-10T03:36:04;10.80;99.90
22161;DHT22;49035;48.812;11.762;2022-07-10T03:38:30;10.70;99.90
22161;DHT22;49035;48.812;11.762;2022-07-10T03:40:56;10.70;99.90
22161;DHT22;49035;48.812;11.762;2022-07-10T03:43:21;10.60;99.90
22161;DHT22;49035;48.812;11.762;2022-07-10T03:45:47;10.60;99.90
22161;DHT22;49035;48.812;11.762;2022-07-10T03:48:12;10.70;99.90
22161;DHT22;49035;48.812;11.762;2022-07-10T03:50:38;10.80;99.90
22161;DHT22;49035;48.812;11.762;2022-07-10T03:53:03;10.70;99.90
22161;DHT22;49035;48.812;11.762;2022-07-10T03:55:29;10.80;99.90
22161;DHT22;49035;48.812;11.762;2022-07-10T03:57:54;10.80;99.90
22161;DHT22;49035;48.812;11.762;2022-07-10T04:00:25;10.80;99.90
22161;DHT22;49035;48.812;11.762;2022-07-10T04:02:56;10.90;99.90
22161;DHT22;49035;48.812;11.762;2022-07-10T04:05:22;11.10;99.90
22161;DHT22;49035;48.812;11.762;2022-07-10T04:07:48;11.20;99.90
22161;DHT22;49035;48.812;11.762;2022-07-10T04:10:13;11.30;99.90
22161;DHT22;49035;48.812;11.762;2022-07-10T04:12:39;11.30;99.90
22161;DHT22;49035;48.812;11.762;2022-07-10T04:15:05;11.40;99.90
22161;DHT22;49035;48.812;11.762;2022-07-10T04:17:31;11.50;99.90
22161;DHT22;49035;48.812;11.762;2022-07-10T04:19:58;11.50;99.90
22161;DHT22;49035;48.812;11.762;2022-07-10T04:22:24;11.60;99.90
22161;DHT22;49035;48.812;11.762;2022-07-10T04:24:54;11.70;99.90
22161;DHT22;49035;48.812;11.762;2022-07-10T04:27:19;11.60;99.90
22161;DHT22;49035;48.812;11.762;2022-07-10T04:29:45;11.70;99.90
22161;DHT22;49035;48.812;11.762;2022-07-10T04:32:11;11.80;99.90
22161;DHT22;49035;48.812;11.762;2022-07-10T04:34:37;12.00;99.90
22161;DHT22;49035;48.812;11.762;2022-07-10T04:37:02;12.20;99.90
22161;DHT22;49035;48.812;11.762;2022-07-10T04:39:28;12.40;99.90
22161;DHT22;49035;48.812;11.762;2022-07-10T04:41:54;12.90;99.90
22161;DHT22;49035;48.812;11.762;2022-07-10T04:44:19;13.50;99.90
22161;DHT22;49035;48.812;11.762;2022-07-10T04:46:45;13.90;99.90
22161;DHT22;49035;48.812;11.762;2022-07-10T04:49:10;14.60;99.90
22161;DHT22;49035;48.812;11.762;2022-07-10T04:51:36;15.30;99.90
22161;DHT22;49035;48.812;11.762;2022-07-10T04:54:02;16.40;99.90
22161;DHT22;49035;48.812;11.762;2022-07-10T04:56:27;17.10;99.90
22161;DHT22;49035;48.812;11.762;2022-07-10T04:58:53;17.80;99.90
22161;DHT22;49035;48.812;11.762;2022-07-10T05:01:19;18.80;99.90
22161;DHT22;49035;48.812;11.762;2022-07-10T05:03:45;19.60;99.90
22161;DHT22;49035;48.812;11.762;2022-07-10T05:06:10;20.10;99.90
22161;DHT22;49035;48.812;11.762;2022-07-10T05:08:36;20.70;99.90
22161;DHT22;49035;48.812;11.762;2022-07-10T05:11:02;20.40;99.90
22161;DHT22;49035;48.812;11.762;2022-07-10T05:13:27;20.80;99.90
22161;DHT22;49035;48.812;11.762;2022-07-10T05:15:53;20.90;99.90
22161;DHT22;49035;48.812;11.762;2022-07-10T05:18:18;20.90;99.90
22161;DHT22;49035;48.812;11.762;2022-07-10T05:20:44;21.00;99.90
22161;DHT22;49035;48.812;11.762;2022-07-10T05:23:10;20.30;99.90
22161;DHT22;49035;48.812;11.762;2022-07-10T05:25:37;19.70;99.90
22161;DHT22;49035;48.812;11.762;2022-07-10T05:28:04;19.20;99.90
22161;DHT22;49035;48.812;11.762;2022-07-10T05:30:30;18.70;99.90
22161;DHT22;49035;48.812;11.762;2022-07-10T05:32:56;18.20;99.90
22161;DHT22;49035;48.812;11.762;2022-07-10T05:35:21;17.90;99.90
22161;DHT22;49035;48.812;11.762;2022-07-10T05:37:47;17.60;99.90
22161;DHT22;49035;48.812;11.762;2022-07-10T05:40:13;17.20;99.90
22161;DHT22;49035;48.812;11.762;2022-07-10T05:42:38;17.00;99.90
22161;DHT22;49035;48.812;11.762;2022-07-10T05:45:05;17.00;99.90
22161;DHT22;49035;48.812;11.762;2022-07-10T05:47:32;17.00;99.90
22161;DHT22;49035;48.812;11.762;2022-07-10T05:49:58;17.50;99.90
22161;DHT22;49035;48.812;11.762;2022-07-10T05:52:24;18.30;99.90
22161;DHT22;49035;48.812;11.762;2022-07-10T05:54:50;18.80;99.90
22161;DHT22;49035;48.812;11.762;2022-07-10T05:57:16;18.80;99.90
22161;DHT22;49035;48.812;11.762;2022-07-10T05:59:42;18.80;99.90
22161;DHT22;49035;48.812;11.762;2022-07-10T06:02:08;18.60;99.90
22161;DHT22;49035;48.812;11.762;2022-07-10T06:04:34;18.60;99.90
22161;DHT22;49035;48.812;11.762;2022-07-10T06:07:00;18.50;99.90
22161;DHT22;49035;48.812;11.762;2022-07-10T06:09:25;18.50;99.90
22161;DHT22;49035;48.812;11.762;2022-07-10T06:11:51;18.30;99.90
22161;DHT22;49035;48.812;11.762;2022-07-10T06:14:17;18.00;99.90
22161;DHT22;49035;48.812;11.762;2022-07-10T06:16:42;17.80;99.90
22161;DHT22;49035;48.812;11.762;2022-07-10T06:19:08;17.80;99.90
22161;DHT22;49035;48.812;11.762;2022-07-10T06:21:33;17.90;99.90
22161;DHT22;49035;48.812;11.762;2022-07-10T06:23:59;17.70;99.90
22161;DHT22;49035;48.812;11.762;2022-07-10T06:26:25;17.70;99.90
22161;DHT22;49035;48.812;11.762;2022-07-10T06:28:50;17.60;99.90
22161;DHT22;49035;48.812;11.762;2022-07-10T06:31:16;17.30;99.90
22161;DHT22;49035;48.812;11.762;2022-07-10T06:33:41;17.10;99.90
22161;DHT22;49035;48.812;11.762;2022-07-10T06:36:08;16.90;99.90
22161;DHT22;49035;48.812;11.762;2022-07-10T06:38:33;16.80;99.90
22161;DHT22;49035;48.812;11.762;2022-07-10T06:40:59;16.80;99.90
22161;DHT22;49035;48.812;11.762;2022-07-10T06:43:24;16.70;99.90
22161;DHT22;49035;48.812;11.762;2022-07-10T06:45:50;16.70;99.90
22161;DHT22;49035;48.812;11.762;2022-07-10T06:48:16;16.90;99.90
22161;DHT22;49035;48.812;11.762;2022-07-10T06:50:42;17.10;99.90
22161;DHT22;49035;48.812;11.762;2022-07-10T06:53:08;17.00;99.90
22161;DHT22;49035;48.812;11.762;2022-07-10T06:55:34;17.20;99.90
22161;DHT22;49035;48.812;11.762;2022-07-10T06:58:00;17.30;99.90
22161;DHT22;49035;48.812;11.762;2022-07-10T07:00:27;17.20;99.90
22161;DHT22;49035;48.812;11.762;2022-07-10T07:02:52;17.20;99.90
22161;DHT22;49035;48.812;11.762;2022-07-10T07:05:18;17.50;99.90
22161;DHT22;49035;48.812;11.762;2022-07-10T07:07:44;17.90;99.90
22161;DHT22;49035;48.812;11.762;2022-07-10T07:10:10;18.60;99.90
22161;DHT22;49035;48.812;11.762;2022-07-10T07:12:36;19.40;99.90
22161;DHT22;49035;48.812;11.762;2022-07-10T07:15:02;20.00;99.90
22161;DHT22;49035;48.812;11.762;2022-07-10T07:17:28;20.50;97.50
22161;DHT22;49035;48.812;11.762;2022-07-10T07:20:00;20.90;91.70
22161;DHT22;49035;48.812;11.762;2022-07-10T07:22:44;20.70;92.60
22161;DHT22;49035;48.812;11.762;2022-07-10T07:25:29;20.10;92.70
22161;DHT22;49035;48.812;11.762;2022-07-10T07:27:54;19.50;94.80
22161;DHT22;49035;48.812;11.762;2022-07-10T07:30:20;19.90;93.50
22161;DHT22;49035;48.812;11.762;2022-07-10T07:32:46;19.50;92.50
22161;DHT22;49035;48.812;11.762;2022-07-10T07:35:14;18.90;93.20
22161;DHT22;49035;48.812;11.762;2022-07-10T07:37:50;18.40;94.50
22161;DHT22;49035;48.812;11.762;2022-07-10T07:40:20;18.30;95.40
22161;DHT22;49035;48.812;11.762;2022-07-10T07:42:57;18.40;97.70
22161;DHT22;49035;48.812;11.762;2022-07-10T07:45:23;19.20;94.70
22161;DHT22;49035;48.812;11.762;2022-07-10T07:47:52;19.10;93.30
22161;DHT22;49035;48.812;11.762;2022-07-10T07:50:19;18.80;91.20
22161;DHT22;49035;48.812;11.762;2022-07-10T07:52:46;18.40;92.00
22161;DHT22;49035;48.812;11.762;2022-07-10T07:55:13;17.80;94.20
22161;DHT22;49035;48.812;11.762;2022-07-10T07:57:40;17.60;95.50
22161;DHT22;49035;48.812;11.762;2022-07-10T08:00:07;17.60;97.20
22161;DHT22;49035;48.812;11.762;2022-07-10T08:02:34;17.70;98.60
22161;DHT22;49035;48.812;11.762;2022-07-10T08:04:59;17.70;94.40
22161;DHT22;49035;48.812;11.762;2022-07-10T08:07:45;17.70;96.00
22161;DHT22;49035;48.812;11.762;2022-07-10T08:10:13;17.80;93.70
22161;DHT22;49035;48.812;11.762;2022-07-10T08:12:40;17.60;93.00
22161;DHT22;49035;48.812;11.762;2022-07-10T08:15:10;17.60;91.70
22161;DHT22;49035;48.812;11.762;2022-07-10T08:17:36;18.30;91.00
22161;DHT22;49035;48.812;11.762;2022-07-10T08:20:03;19.30;89.80
22161;DHT22;49035;48.812;11.762;2022-07-10T08:22:29;20.60;82.20
22161;DHT22;49035;48.812;11.762;2022-07-10T08:24:55;21.50;80.50
22161;DHT22;49035;48.812;11.762;2022-07-10T08:27:22;22.00;72.70
22161;DHT22;49035;48.812;11.762;2022-07-10T08:29:47;21.50;72.60
22161;DHT22;49035;48.812;11.762;2022-07-10T08:32:13;21.00;74.40
22161;DHT22;49035;48.812;11.762;2022-07-10T08:34:39;20.80;74.50
22161;DHT22;49035;48.812;11.762;2022-07-10T08:37:04;20.60;72.40
22161;DHT22;49035;48.812;11.762;2022-07-10T08:39:30;20.40;73.60
22161;DHT22;49035;48.812;11.762;2022-07-10T08:41:57;20.10;72.90
22161;DHT22;49035;48.812;11.762;2022-07-10T08:44:22;19.90;73.20
22161;DHT22;49035;48.812;11.762;2022-07-10T08:46:48;20.00;75.60
22161;DHT22;49035;48.812;11.762;2022-07-10T08:49:16;19.80;75.20
22161;DHT22;49035;48.812;11.762;2022-07-10T08:52:11;19.90;76.20
22161;DHT22;49035;48.812;11.762;2022-07-10T08:54:34;20.90;74.80
22161;DHT22;49035;48.812;11.762;2022-07-10T08:57:02;20.50;70.30
22161;DHT22;49035;48.812;11.762;2022-07-10T08:59:29;20.60;74.60
22161;DHT22;49035;48.812;11.762;2022-07-10T09:01:55;20.50;72.50
22161;DHT22;49035;48.812;11.762;2022-07-10T09:04:25;20.10;71.00
22161;DHT22;49035;48.812;11.762;2022-07-10T09:06:52;20.00;70.70
22161;DHT22;49035;48.812;11.762;2022-07-10T09:09:19;19.90;75.40
22161;DHT22;49035;48.812;11.762;2022-07-10T09:11:45;20.70;70.60
22161;DHT22;49035;48.812;11.762;2022-07-10T09:14:14;21.30;67.20
22161;DHT22;49035;48.812;11.762;2022-07-10T09:16:43;21.30;70.30
22161;DHT22;49035;48.812;11.762;2022-07-10T09:19:24;21.20;64.40
22161;DHT22;49035;48.812;11.762;2022-07-10T09:21:52;21.00;65.00
22161;DHT22;49035;48.812;11.762;2022-07-10T09:24:19;21.10;64.50
22161;DHT22;49035;48.812;11.762;2022-07-10T09:26:59;20.50;63.90
22161;DHT22;49035;48.812;11.762;2022-07-10T09:29:26;20.30;65.80
22161;DHT22;49035;48.812;11.762;2022-07-10T09:31:53;20.40;67.40
22161;DHT22;49035;48.812;11.762;2022-07-10T09:37:27;20.30;68.60
22161;DHT22;49035;48.812;11.762;2022-07-10T09:39:59;19.90;67.60
22161;DHT22;49035;48.812;11.762;2022-07-10T09:42:27;20.00;66.30
22161;DHT22;49035;48.812;11.762;2022-07-10T09:47:58;19.70;68.10
22161;DHT22;49035;48.812;11.762;2022-07-10T09:50:34;19.50;66.60
22161;DHT22;49035;48.812;11.762;2022-07-10T09:53:06;19.70;67.50
22161;DHT22;49035;48.812;11.762;2022-07-10T09:55:36;20.00;67.30
22161;DHT22;49035;48.812;11.762;2022-07-10T09:58:03;20.10;64.50
22161;DHT22;49035;48.812;11.762;2022-07-10T10:00:31;20.20;63.80
22161;DHT22;49035;48.812;11.762;2022-07-10T10:03:02;20.10;64.30
22161;DHT22;49035;48.812;11.762;2022-07-10T10:05:41;19.60;66.70
22161;DHT22;49035;48.812;11.762;2022-07-10T10:08:24;19.60;67.50
22161;DHT22;49035;48.812;11.762;2022-07-10T10:10:51;19.90;69.80
22161;DHT22;49035;48.812;11.762;2022-07-10T10:13:22;20.30;66.20
22161;DHT22;49035;48.812;11.762;2022-07-10T10:15:49;20.60;66.70
22161;DHT22;49035;48.812;11.762;2022-07-10T10:18:25;20.20;62.70
22161;DHT22;49035;48.812;11.762;2022-07-10T10:20:53;20.60;64.10
22161;DHT22;49035;48.812;11.762;2022-07-10T10:23:23;20.80;64.50
22161;DHT22;49035;48.812;11.762;2022-07-10T10:25:54;21.20;67.10
22161;DHT22;49035;48.812;11.762;2022-07-10T10:28:21;21.10;63.20
22161;DHT22;49035;48.812;11.762;2022-07-10T10:30:59;20.20;63.00
22161;DHT22;49035;48.812;11.762;2022-07-10T10:36:02;19.90;64.80
22161;DHT22;49035;48.812;11.762;2022-07-10T10:41:36;20.40;63.70
22161;DHT22;49035;48.812;11.762;2022-07-10T10:46:34;19.90;61.30
22161;DHT22;49035;48.812;11.762;2022-07-10T10:49:08;19.90;62.50
22161;DHT22;49035;48.812;11.762;2022-07-10T10:52:26;20.30;63.60
22161;DHT22;49035;48.812;11.762;2022-07-10T10:59:58;21.50;60.50
22161;DHT22;49035;48.812;11.762;2022-07-10T11:02:33;20.70;60.10
22161;DHT22;49035;48.812;11.762;2022-07-10T11:07:55;20.70;68.30
22161;DHT22;49035;48.812;11.762;2022-07-10T11:10:40;21.50;59.30
22161;DHT22;49035;48.812;11.762;2022-07-10T11:13:16;20.50;60.50
22161;DHT22;49035;48.812;11.762;2022-07-10T11:15:47;20.00;62.60
22161;DHT22;49035;48.812;11.762;2022-07-10T11:18:14;20.20;62.50
22161;DHT22;49035;48.812;11.762;2022-07-10T11:29:05;21.30;62.00
22161;DHT22;49035;48.812;11.762;2022-07-10T11:31:32;20.90;59.20
22161;DHT22;49035;48.812;11.762;2022-07-10T11:34:04;20.60;57.90
22161;DHT22;49035;48.812;11.762;2022-07-10T11:36:30;20.70;59.40
22161;DHT22;49035;48.812;11.762;2022-07-10T11:41:24;21.70;61.50
22161;DHT22;49035;48.812;11.762;2022-07-10T11:43:51;22.30;57.00
22161;DHT22;49035;48.812;11.762;2022-07-10T11:46:21;21.90;55.70
22161;DHT22;49035;48.812;11.762;2022-07-10T11:48:48;21.80;56.50
22161;DHT22;49035;48.812;11.762;2022-07-10T11:51:29;21.30;56.30
22161;DHT22;49035;48.812;11.762;2022-07-10T11:54:00;21.00;58.10
22161;DHT22;49035;48.812;11.762;2022-07-10T11:56:28;20.70;56.60
22161;DHT22;49035;48.812;11.762;2022-07-10T11:59:08;20.50;59.90
22161;DHT22;49035;48.812;11.762;2022-07-10T12:01:41;20.10;59.70
22161;DHT22;49035;48.812;11.762;2022-07-10T12:04:07;19.90;62.90
22161;DHT22;49035;48.812;11.762;2022-07-10T12:06:42;20.60;58.00
22161;DHT22;49035;48.812;11.762;2022-07-10T12:11:38;21.20;56.70
22161;DHT22;49035;48.812;11.762;2022-07-10T12:16:36;20.30;60.20
22161;DHT22;49035;48.812;11.762;2022-07-10T12:19:03;21.00;58.30
22161;DHT22;49035;48.812;11.762;2022-07-10T12:21:29;20.20;58.30
22161;DHT22;49035;48.812;11.762;2022-07-10T12:23:55;19.70;58.70
22161;DHT22;49035;48.812;11.762;2022-07-10T12:26:22;19.00;60.80
22161;DHT22;49035;48.812;11.762;2022-07-10T12:28:55;19.30;65.00
22161;DHT22;49035;48.812;11.762;2022-07-10T12:31:22;20.10;61.10
22161;DHT22;49035;48.812;11.762;2022-07-10T12:33:56;20.00;58.20
22161;DHT22;49035;48.812;11.762;2022-07-10T12:36:24;19.80;61.10
22161;DHT22;49035;48.812;11.762;2022-07-10T12:38:57;20.10;59.90
22161;DHT22;49035;48.812;11.762;2022-07-10T12:41:25;20.50;60.60
22161;DHT22;49035;48.812;11.762;2022-07-10T12:43:53;20.50;59.50
22161;DHT22;49035;48.812;11.762;2022-07-10T12:46:23;20.80;56.80
22161;DHT22;49035;48.812;11.762;2022-07-10T12:49:09;21.50;58.40
22161;DHT22;49035;48.812;11.762;2022-07-10T12:51:44;21.90;55.50
22161;DHT22;49035;48.812;11.762;2022-07-10T12:54:38;21.70;54.80
22161;DHT22;49035;48.812;11.762;2022-07-10T12:57:05;20.90;55.50
22161;DHT22;49035;48.812;11.762;2022-07-10T12:59:35;20.40;58.70
22161;DHT22;49035;48.812;11.762;2022-07-10T13:04:54;20.40;59.40
22161;DHT22;49035;48.812;11.762;2022-07-10T13:07:31;21.10;59.60
22161;DHT22;49035;48.812;11.762;2022-07-10T13:10:02;22.10;58.70
22161;DHT22;49035;48.812;11.762;2022-07-10T13:12:28;22.60;57.50
22161;DHT22;49035;48.812;11.762;2022-07-10T13:14:54;22.60;54.30
22161;DHT22;49035;48.812;11.762;2022-07-10T13:17:20;22.50;53.70
22161;DHT22;49035;48.812;11.762;2022-07-10T13:19:45;22.20;54.50
22161;DHT22;49035;48.812;11.762;2022-07-10T13:22:12;21.80;55.00
22161;DHT22;49035;48.812;11.762;2022-07-10T13:24:37;21.50;55.50
22161;DHT22;49035;48.812;11.762;2022-07-10T13:27:03;21.00;55.80
22161;DHT22;49035;48.812;11.762;2022-07-10T13:29:29;20.70;59.80
22161;DHT22;49035;48.812;11.762;2022-07-10T13:31:54;20.60;57.10
22161;DHT22;49035;48.812;11.762;2022-07-10T13:34:20;20.30;58.00
22161;DHT22;49035;48.812;11.762;2022-07-10T13:36:46;20.40;58.20
22161;DHT22;49035;48.812;11.762;2022-07-10T13:39:11;20.50;58.50
22161;DHT22;49035;48.812;11.762;2022-07-10T13:41:37;21.00;60.40
22161;DHT22;49035;48.812;11.762;2022-07-10T13:44:03;21.60;58.70
22161;DHT22;49035;48.812;11.762;2022-07-10T13:46:29;22.00;59.40
22161;DHT22;49035;48.812;11.762;2022-07-10T13:48:54;22.40;53.60
22161;DHT22;49035;48.812;11.762;2022-07-10T13:51:20;22.60;54.60
22161;DHT22;49035;48.812;11.762;2022-07-10T13:53:46;22.60;55.50
22161;DHT22;49035;48.812;11.762;2022-07-10T13:56:11;22.20;53.00
22161;DHT22;49035;48.812;11.762;2022-07-10T13:58:37;22.20;56.70
22161;DHT22;49035;48.812;11.762;2022-07-10T14:01:04;22.70;53.70
22161;DHT22;49035;48.812;11.762;2022-07-10T14:03:30;22.60;54.90
22161;DHT22;49035;48.812;11.762;2022-07-10T14:05:57;22.60;56.60
22161;DHT22;49035;48.812;11.762;2022-07-10T14:08:23;22.40;54.30
22161;DHT22;49035;48.812;11.762;2022-07-10T14:10:49;22.50;54.90
22161;DHT22;49035;48.812;11.762;2022-07-10T14:13:15;22.70;55.80
22161;DHT22;49035;48.812;11.762;2022-07-10T14:15:41;22.70;53.90
22161;DHT22;49035;48.812;11.762;2022-07-10T14:18:10;22.90;55.20
22161;DHT22;49035;48.812;11.762;2022-07-10T14:23:09;22.60;56.30
22161;DHT22;49035;48.812;11.762;2022-07-10T14:25:35;22.70;54.10
22161;DHT22;49035;48.812;11.762;2022-07-10T14:28:01;21.70;55.80
22161;DHT22;49035;48.812;11.762;2022-07-10T14:30:26;21.50;57.90
22161;DHT22;49035;48.812;11.762;2022-07-10T14:32:52;22.00;56.40
22161;DHT22;49035;48.812;11.762;2022-07-10T14:35:19;22.60;55.00
22161;DHT22;49035;48.812;11.762;2022-07-10T14:37:45;22.00;54.50
22161;DHT22;49035;48.812;11.762;2022-07-10T14:40:11;21.80;55.90
22161;DHT22;49035;48.812;11.762;2022-07-10T14:42:36;21.90;56.20
22161;DHT22;49035;48.812;11.762;2022-07-10T14:45:03;22.30;55.40
22161;DHT22;49035;48.812;11.762;2022-07-10T14:47:29;23.00;53.40
22161;DHT22;49035;48.812;11.762;2022-07-10T14:49:54;23.50;53.30
22161;DHT22;49035;48.812;11.762;2022-07-10T14:52:20;23.20;53.90
22161;DHT22;49035;48.812;11.762;2022-07-10T14:54:47;22.30;55.00
22161;DHT22;49035;48.812;11.762;2022-07-10T14:57:12;21.90;56.00
22161;DHT22;49035;48.812;11.762;2022-07-10T14:59:38;21.60;56.00
22161;DHT22;49035;48.812;11.762;2022-07-10T15:02:04;22.10;55.90
22161;DHT22;49035;48.812;11.762;2022-07-10T15:04:29;22.40;53.40
22161;DHT22;49035;48.812;11.762;2022-07-10T15:06:55;22.00;53.50
22161;DHT22;49035;48.812;11.762;2022-07-10T15:09:20;22.00;56.50
22161;DHT22;49035;48.812;11.762;2022-07-10T15:11:46;22.30;55.50
22161;DHT22;49035;48.812;11.762;2022-07-10T15:14:12;22.30;53.90
22161;DHT22;49035;48.812;11.762;2022-07-10T15:16:37;22.10;54.60
22161;DHT22;49035;48.812;11.762;2022-07-10T15:19:03;22.00;54.50
22161;DHT22;49035;48.812;11.762;2022-07-10T15:21:30;22.30;54.80
22161;DHT22;49035;48.812;11.762;2022-07-10T15:23:55;22.00;54.70
22161;DHT22;49035;48.812;11.762;2022-07-10T15:26:21;23.00;52.70
22161;DHT22;49035;48.812;11.762;2022-07-10T15:28:47;23.00;52.30
22161;DHT22;49035;48.812;11.762;2022-07-10T15:31:12;23.20;52.90
22161;DHT22;49035;48.812;11.762;2022-07-10T15:33:38;23.90;53.00
22161;DHT22;49035;48.812;11.762;2022-07-10T15:36:09;25.00;50.60
22161;DHT22;49035;48.812;11.762;2022-07-10T15:38:35;25.20;48.30
22161;DHT22;49035;48.812;11.762;2022-07-10T15:41:00;25.70;49.10
22161;DHT22;49035;48.812;11.762;2022-07-10T15:43:26;25.70;48.90
22161;DHT22;49035;48.812;11.762;2022-07-10T15:45:54;24.80;48.00
22161;DHT22;49035;48.812;11.762;2022-07-10T15:48:20;24.50;49.40
22161;DHT22;49035;48.812;11.762;2022-07-10T15:50:46;24.80;49.30
22161;DHT22;49035;48.812;11.762;2022-07-10T15:53:12;25.00;48.50
22161;DHT22;49035;48.812;11.762;2022-07-10T15:55:38;24.30;49.10
22161;DHT22;49035;48.812;11.762;2022-07-10T15:58:03;23.70;50.40
22161;DHT22;49035;48.812;11.762;2022-07-10T16:00:29;23.60;50.30